Time;durP1;ratioP1;P1;durP2;ratioP2;P2;SDS_P1;SDS_P2;PMS_P1;PMS_P2;Temp;Humidity;BMP_temperature;BMP_pressure;BME280_temperature;BME280_humidity;BME280_pressure;Samples;Min_cycle;Max_cycle;Signal;HPM_P1;HPM_P2
2024/02/17 00:02:48;;;;;;;1.77;1.15;;;17.50;70.20;;;;;;6069853;23;20187;-88
2024/02/17 00:05:27;;;;;;;;;;;;;;;;;;;;;
2024/02/17 01:56:26;;;;;;;1.05;0.90;;;17.30;70.80;;;;;;6288563;22;20264;-89
2024/02/17 01:59:10;;;;;;;1.42;0.90;;;17.30;70.90;;;;;;6265050;22;20133;-88
2024/02/17 02:01:58;;;;;;;1.58;0.90;;;17.30;70.50;;;;;;6207903;22;20176;-88
2024/02/17 02:04:27;;;;;;;1.23;1.00;;;17.30;71.30;;;;;;6197634;23;20312;-89
2024/02/17 02:10:20;;;;;;;1.80;0.88;;;17.30;70.90;;;;;;6058962;23;20157;-89
2024/02/17 02:13:03;;;;;;;1.50;1.10;;;17.30;70.50;;;;;;5995035;24;20170;-88
2024/02/17 02:15:41;;;;;;;2.03;1.00;;;17.30;71.00;;;;;;5945340;24;20159;-89
2024/02/17 02:18:35;;;;;;;2.55;1.10;;;17.40;70.50;;;;;;5923676;24;20151;-88
2024/02/17 02:21:04;;;;;;;1.50;1.20;;;17.30;70.50;;;;;;5922520;24;20274;-87
2024/02/17 02:23:42;;;;;;;;;;;;;;;;;;;;;
2024/02/17 02:26:03;;;;;;;1.33;0.90;;;17.30;70.20;;;;;;6242519;22;21132;-88
2024/02/17 02:28:32;;;;;;;1.90;0.93;;;17.40;70.90;;;;;;6231981;23;20205;-88
2024/02/17 02:31:33;;;;;;;1.60;1.10;;;17.30;70.80;;;;;;6207117;23;20185;-89
2024/02/17 02:34:02;;;;;;;1.38;1.13;;;17.30;71.20;;;;;;6217149;23;20149;-89
2024/02/17 02:49:44;;;;;;;1.02;0.90;;;17.30;71.50;;;;;;6289009;22;20204;-89
2024/02/17 02:52:32;;;;;;;1.73;1.02;;;17.20;71.20;;;;;;6240382;22;20567;-89
2024/02/17 02:55:10;;;;;;;2.85;1.10;;;17.30;71.40;;;;;;6155727;23;20584;-89
2024/02/17 02:57:46;;;;;;;1.23;1.02;;;17.30;71.30;;;;;;6142535;23;20155;-89
2024/02/17 03:00:17;;;;;;;1.00;0.90;;;17.30;70.90;;;;;;6089840;23;20151;-88
2024/02/17 03:02:56;;;;;;;1.63;1.08;;;17.30;71.20;;;;;;6090291;23;20187;-89
2024/02/17 03:23:30;;;;;;;0.73;0.73;;;17.20;71.10;;;;;;6280551;22;20256;-89
2024/02/17 03:26:03;;;;;;;1.13;1.02;;;17.30;71.00;;;;;;6196207;23;20159;-89
2024/02/17 03:28:41;;;;;;;1.20;0.90;;;17.20;71.10;;;;;;6123199;23;20158;-89
2024/02/17 03:31:27;;;;;;;2.35;1.20;;;17.20;70.90;;;;;;6137266;23;20159;-90
2024/02/17 03:34:15;;;;;;;1.05;0.90;;;17.20;70.90;;;;;;6087092;23;20167;-89
2024/02/17 03:36:55;;;;;;;0.98;0.90;;;17.20;71.00;;;;;;6050148;23;20158;-89
2024/02/17 03:39:26;;;;;;;1.00;0.90;;;17.20;70.90;;;;;;6050862;23;20472;-88
2024/02/17 03:42:08;;;;;;;1.10;1.00;;;17.30;70.50;;;;;;6021699;23;20195;-89
2024/02/17 03:45:02;;;;;;;1.00;0.90;;;17.30;71.10;;;;;;5988359;24;20263;-88
2024/02/17 03:47:41;;;;;;;1.25;1.15;;;17.30;71.30;;;;;;5965153;24;20171;-89
2024/02/17 03:50:39;;;;;;;1.20;1.10;;;17.20;70.70;;;;;;5892824;24;20248;-89
2024/02/17 03:53:14;;;;;;;1.65;1.05;;;17.30;71.00;;;;;;5837059;24;20173;-89
2024/02/17 03:55:56;;;;;;;;;;;;;;;;;;;;;
2024/02/17 03:58:33;;;;;;;1.23;1.13;;;17.20;71.10;;;;;;5905459;24;20199;-89
2024/02/17 04:01:02;;;;;;;0.95;0.85;;;17.30;70.90;;;;;;5893678;24;20191;-89
2024/02/17 04:03:31;;;;;;;1.00;0.90;;;17.30;71.00;;;;;;5934186;24;20164;-89
2024/02/17 04:05:59;;;;;;;0.77;0.77;;;17.20;71.00;;;;;;5885667;24;20188;-89
2024/02/17 04:08:48;;;;;;;1.33;1.02;;;17.20;71.20;;;;;;5906027;24;20165;-89
2024/02/17 04:11:22;;;;;;;1.38;0.90;;;17.20;71.30;;;;;;5882953;24;20654;-89
2024/02/17 04:14:16;;;;;;;1.45;0.90;;;17.20;71.30;;;;;;5931658;24;20154;-90
2024/02/17 04:16:49;;;;;;;0.80;0.80;;;17.20;71.20;;;;;;5951320;24;20157;-89
2024/02/17 04:19:21;;;;;;;1.10;0.98;;;17.20;71.30;;;;;;5957138;24;20194;-89
2024/02/17 04:22:16;;;;;;;1.10;1.00;;;17.20;71.40;;;;;;5882672;24;20194;-88
2024/02/17 04:24:50;;;;;;;2.40;0.90;;;17.20;71.50;;;;;;5870202;24;20208;-90
2024/02/17 04:27:51;;;;;;;2.10;0.85;;;17.20;71.40;;;;;;5936764;24;20152;-89
2024/02/17 04:30:30;;;;;;;0.95;0.82;;;17.20;71.10;;;;;;5915004;24;20153;-89
2024/02/17 04:32:58;;;;;;;1.13;0.90;;;17.20;71.30;;;;;;5893753;24;20201;-89
2024/02/17 04:40:53;;;;;;;1.35;1.00;;;17.20;71.40;;;;;;6239230;22;20204;-89
2024/02/17 04:54:40;;;;;;;1.55;0.90;;;17.10;71.30;;;;;;6281274;22;20200;-89
2024/02/17 04:57:20;;;;;;;1.73;0.80;;;17.20;71.00;;;;;;6214624;22;20149;-90
2024/02/17 04:59:57;;;;;;;1.00;0.90;;;17.10;71.20;;;;;;6127832;23;20150;-89
2024/02/17 05:02:49;;;;;;;2.85;0.90;;;17.20;70.90;;;;;;6177614;23;20231;-90
2024/02/17 05:05:33;;;;;;;1.20;1.08;;;17.20;70.70;;;;;;6123481;23;20194;-89
2024/02/17 05:08:50;;;;;;;1.25;1.00;;;17.20;71.40;;;;;;6171389;23;20238;-88
2024/02/17 05:11:40;;;;;;;0.70;0.70;;;17.10;71.10;;;;;;6178593;23;20267;-88
2024/02/17 05:14:15;;;;;;;0.90;0.88;;;17.10;71.40;;;;;;6062433;23;20162;-89
2024/02/17 05:16:55;;;;;;;0.90;0.75;;;17.10;71.10;;;;;;6080215;23;20161;-89
2024/02/17 05:19:23;;;;;;;1.10;0.95;;;17.20;71.20;;;;;;6104106;23;20601;-89
2024/02/17 05:21:53;;;;;;;0.93;0.90;;;17.10;71.30;;;;;;6052581;23;20196;-89
2024/02/17 05:24:26;;;;;;;1.77;0.82;;;17.20;71.60;;;;;;5966231;24;20601;-89
2024/02/17 05:27:02;;;;;;;1.00;0.90;;;17.10;71.40;;;;;;5944984;24;20160;-88
2024/02/17 05:29:48;;;;;;;1.02;0.90;;;17.20;71.40;;;;;;5961599;24;20163;-89
2024/02/17 05:32:21;;;;;;;1.10;1.00;;;17.20;71.30;;;;;;5939751;24;20165;-88
2024/02/17 05:35:18;;;;;;;1.20;1.10;;;17.10;70.80;;;;;;5963003;24;20180;-89
2024/02/17 05:37:52;;;;;;;1.25;1.10;;;17.10;70.70;;;;;;5935693;24;20158;-88
2024/02/17 05:40:54;;;;;;;1.73;1.10;;;17.10;70.90;;;;;;5916336;24;20153;-88
2024/02/17 05:43:22;;;;;;;0.98;0.88;;;17.20;71.00;;;;;;5887822;24;20177;-89
2024/02/17 05:45:54;;;;;;;1.13;0.82;;;17.10;71.00;;;;;;5912691;24;20154;-89
2024/02/17 05:51:47;;;;;;;1.08;0.88;;;17.20;70.90;;;;;;5819292;24;20167;-88
2024/02/17 05:54:20;;;;;;;1.00;0.88;;;17.10;71.00;;;;;;5854162;24;20192;-88
2024/02/17 06:12:40;;;;;;;1.08;0.98;;;17.10;70.80;;;;;;6289444;22;20208;-87
2024/02/17 07:14:49;;;;;;;0.80;0.80;;;17.30;70.30;;;;;;6248179;22;20184;-88
2024/02/17 07:18:17;;;;;;;1.23;0.90;;;17.40;70.10;;;;;;6163336;23;20155;-86
2024/02/17 07:21:19;;;;;;;1.45;0.80;;;17.40;69.80;;;;;;6083531;23;20153;-87
2024/02/17 11:53:13;;;;;;;2.65;0.85;;;19.10;67.70;;;;;;6288295;22;20651;-90
2024/02/17 13:35:43;;;;;;;6.10;1.35;;;19.40;66.20;;;;;;6261221;22;20206;-89
2024/02/17 16:03:47;;;;;;;4.45;1.00;;;19.50;65.00;;;;;;6280088;22;20204;-87
2024/02/17 16:06:26;;;;;;;3.88;1.00;;;19.50;65.80;;;;;;6188343;22;20282;-89
2024/02/17 16:08:55;;;;;;;4.95;1.15;;;19.40;65.60;;;;;;6235402;22;20471;-88
2024/02/17 18:10:37;;;;;;;2.75;0.90;;;18.90;64.10;;;;;;6238663;22;20204;-88
2024/02/17 18:13:17;;;;;;;1.60;1.00;;;18.80;65.80;;;;;;6174698;23;20154;-89
2024/02/17 18:15:49;;;;;;;2.45;0.68;;;18.70;65.90;;;;;;6174259;23;20155;-89
2024/02/17 18:18:31;;;;;;;2.83;0.75;;;18.80;66.20;;;;;;6161758;23;20179;-90
2024/02/17 18:21:00;;;;;;;3.03;1.00;;;18.70;65.20;;;;;;6099870;23;20153;-89
2024/02/17 18:23:35;;;;;;;2.10;0.73;;;18.70;66.80;;;;;;6103439;23;20168;-89
2024/02/17 18:26:05;;;;;;;2.33;0.70;;;18.70;66.70;;;;;;6102972;23;20584;-89
2024/02/17 18:29:42;;;;;;;0.70;0.38;;;18.60;67.00;;;;;;6130770;23;20149;-90
2024/02/17 18:32:18;;;;;;;;;;;;;;;;;;;;;
2024/02/17 18:35:08;;;;;;;2.42;0.73;;;18.60;66.50;;;;;;6096461;23;20195;-88
2024/02/17 18:37:37;;;;;;;1.42;0.75;;;18.50;67.10;;;;;;6048246;23;20181;-89
2024/02/17 18:40:21;;;;;;;1.13;0.50;;;18.50;65.70;;;;;;6048673;23;20206;-89
2024/02/17 18:43:28;;;;;;;2.35;0.77;;;18.60;64.50;;;;;;6004324;23;20189;-87
